Columbia Falls, MT

6:10 AM MST on December 29, 2014 (GMT -0700)
Cut Bank Municipal | Change Station
CLOSE
Current Station
Airport
Location: Cut Bank,
Elevation: 3855 ft
Nearby Weather Stations
Active Advisory: Winter Storm Warning

Elev 3855 ft 48.61 °N, 112.38 °W | Updated 14 minutes ago

Mostly Cloudy
Mostly Cloudy
1 °F
Feels Like -16 °F
N
12
Wind Variable Wind from NNW

Today
High -- | Low -- °F
--% Chance of Precip.
Yesterday
High -- | Low -- °F
Precip. -- in
8:28 AM 4:50 PM
First Quarter, 59% visible
Pressure 30.82 in
Visibility 5.0 miles
Clouds Overcast 6000 ft
Windchill -16 °F
Dew Point -4 °F
Humidity 79%
Rainfall 0.00 in
Snow Depth Not available.
UV 0 out of 12
Pollen .10 out of 12
Air Quality Not available.
Flu Activity Not available.
METAR KCTB 291256Z AUTO 34010KT 5SM -SN OVC060 M17/M20 A3057 RMK AO2 SLP436 P0000 T11721200 $

More Conditions Fewer Conditions

Pressure 30.82 in
Visibility 5.0 miles
Clouds Overcast 6000 ft
Windchill -16 °F
Dew Point -4 °F
Humidity 79%
Rainfall 0.00 in
Snow Depth Not available.
UV 0 out of 12
Pollen .10 out of 12
Air Quality Not available.
Flu Activity Not available.
METAR KCTB 291256Z AUTO 34010KT 5SM -SN OVC060 M17/M20 A3057 RMK AO2 SLP436 P0000 T11721200 $

More Conditions Fewer Conditions

10-Day Weather Forecast

Almanac

Astronomy

Dec. 29, 2014 Rise Set
Actual Time
Civil Twilight
Nautical Twilight
Astronomical Twilight
Moon
Length of Visible Light
Length of Day
Tomorrow will be .
, % of the Moon is Illuminated

Today's Extremes

State Highs State Lows

Community

WunderPhotos

Upload Photos

1,781,577 photos uploaded!

WunderBlogs® & News

Nearby

Air Quality

  Air Quality AQ Index Pollutant
Not available.

Snow Depth

Station Depth Elevation

Earthquake Activity

City Distance Mag. Time & Date
Minimum magnitude displayed is 2.5.

Coastal Water Temperatures

Place Temperature

Nearby Weather Stations